sensor_id;sensor_type;location;lat;lon;timestamp;P1;durP1;ratioP1;P2;durP2;ratioP2
59336;SDS011;45115;52.002;4.686;2023-02-28T00:00:11;7.05;;;3.50;;
59336;SDS011;45115;52.002;4.686;2023-02-28T00:02:38;5.03;;;2.50;;
59336;SDS011;45115;52.002;4.686;2023-02-28T00:05:08;5.00;;;2.92;;
59336;SDS011;45115;52.002;4.686;2023-02-28T00:07:35;9.10;;;3.40;;
59336;SDS011;45115;52.002;4.686;2023-02-28T00:10:02;4.68;;;2.75;;
59336;SDS011;45115;52.002;4.686;2023-02-28T00:12:28;5.15;;;3.03;;
59336;SDS011;45115;52.002;4.686;2023-02-28T00:15:07;3.63;;;2.78;;
59336;SDS011;45115;52.002;4.686;2023-02-28T00:17:34;3.75;;;2.90;;
59336;SDS011;45115;52.002;4.686;2023-02-28T00:20:00;3.65;;;2.35;;
59336;SDS011;45115;52.002;4.686;2023-02-28T00:22:38;7.90;;;2.72;;
59336;SDS011;45115;52.002;4.686;2023-02-28T00:25:05;2.90;;;2.13;;
59336;SDS011;45115;52.002;4.686;2023-02-28T00:27:33;6.55;;;2.78;;
59336;SDS011;45115;52.002;4.686;2023-02-28T00:29:59;5.65;;;2.53;;
59336;SDS011;45115;52.002;4.686;2023-02-28T00:32:26;4.85;;;2.70;;
59336;SDS011;45115;52.002;4.686;2023-02-28T00:34:53;4.45;;;2.40;;
59336;SDS011;45115;52.002;4.686;2023-02-28T00:37:20;4.25;;;2.40;;
59336;SDS011;45115;52.002;4.686;2023-02-28T00:39:48;6.72;;;2.50;;
59336;SDS011;45115;52.002;4.686;2023-02-28T00:42:15;5.65;;;2.75;;
59336;SDS011;45115;52.002;4.686;2023-02-28T00:44:41;4.00;;;2.28;;
59336;SDS011;45115;52.002;4.686;2023-02-28T00:47:08;3.03;;;2.40;;
59336;SDS011;45115;52.002;4.686;2023-02-28T00:49:34;7.57;;;2.67;;
59336;SDS011;45115;52.002;4.686;2023-02-28T00:52:01;6.00;;;2.42;;
59336;SDS011;45115;52.002;4.686;2023-02-28T00:54:27;4.93;;;2.58;;
59336;SDS011;45115;52.002;4.686;2023-02-28T00:56:55;3.95;;;2.47;;
59336;SDS011;45115;52.002;4.686;2023-02-28T00:59:22;4.35;;;3.15;;
59336;SDS011;45115;52.002;4.686;2023-02-28T01:01:49;4.88;;;2.70;;
59336;SDS011;45115;52.002;4.686;2023-02-28T01:04:15;6.25;;;2.70;;
59336;SDS011;45115;52.002;4.686;2023-02-28T01:06:42;6.80;;;3.10;;
59336;SDS011;45115;52.002;4.686;2023-02-28T01:09:09;9.63;;;2.78;;
59336;SDS011;45115;52.002;4.686;2023-02-28T01:11:35;7.07;;;2.80;;
59336;SDS011;45115;52.002;4.686;2023-02-28T01:14:03;6.07;;;2.85;;
59336;SDS011;45115;52.002;4.686;2023-02-28T01:16:30;6.05;;;2.50;;
59336;SDS011;45115;52.002;4.686;2023-02-28T01:18:58;4.50;;;2.40;;
59336;SDS011;45115;52.002;4.686;2023-02-28T01:21:25;7.00;;;2.80;;
59336;SDS011;45115;52.002;4.686;2023-02-28T01:23:51;4.97;;;2.88;;
59336;SDS011;45115;52.002;4.686;2023-02-28T01:26:19;5.20;;;2.65;;
59336;SDS011;45115;52.002;4.686;2023-02-28T01:28:46;4.68;;;2.72;;
59336;SDS011;45115;52.002;4.686;2023-02-28T01:31:16;6.60;;;3.08;;
59336;SDS011;45115;52.002;4.686;2023-02-28T01:33:43;6.07;;;2.90;;
59336;SDS011;45115;52.002;4.686;2023-02-28T01:36:10;5.35;;;2.67;;
59336;SDS011;45115;52.002;4.686;2023-02-28T01:38:38;6.80;;;3.00;;
59336;SDS011;45115;52.002;4.686;2023-02-28T01:41:05;4.50;;;2.35;;
59336;SDS011;45115;52.002;4.686;2023-02-28T01:43:32;5.32;;;3.13;;
59336;SDS011;45115;52.002;4.686;2023-02-28T01:46:02;4.78;;;2.50;;
59336;SDS011;45115;52.002;4.686;2023-02-28T01:48:32;4.80;;;2.60;;
59336;SDS011;45115;52.002;4.686;2023-02-28T01:51:00;5.50;;;3.13;;
59336;SDS011;45115;52.002;4.686;2023-02-28T01:53:29;7.38;;;2.95;;
59336;SDS011;45115;52.002;4.686;2023-02-28T01:55:56;6.15;;;2.58;;
59336;SDS011;45115;52.002;4.686;2023-02-28T01:58:23;6.25;;;3.03;;
59336;SDS011;45115;52.002;4.686;2023-02-28T02:00:49;5.13;;;3.28;;
59336;SDS011;45115;52.002;4.686;2023-02-28T02:03:17;4.70;;;2.60;;
59336;SDS011;45115;52.002;4.686;2023-02-28T02:05:46;6.15;;;3.05;;
59336;SDS011;45115;52.002;4.686;2023-02-28T02:08:15;6.85;;;3.08;;
59336;SDS011;45115;52.002;4.686;2023-02-28T02:10:43;10.32;;;3.28;;
59336;SDS011;45115;52.002;4.686;2023-02-28T02:13:13;4.60;;;2.60;;
59336;SDS011;45115;52.002;4.686;2023-02-28T02:15:44;6.40;;;3.28;;
59336;SDS011;45115;52.002;4.686;2023-02-28T02:18:15;5.25;;;2.58;;
59336;SDS011;45115;52.002;4.686;2023-02-28T02:20:49;6.25;;;3.10;;
59336;SDS011;45115;52.002;4.686;2023-02-28T02:23:33;7.05;;;3.42;;
59336;SDS011;45115;52.002;4.686;2023-02-28T02:26:17;9.48;;;2.97;;
59336;SDS011;45115;52.002;4.686;2023-02-28T02:28:57;6.00;;;3.03;;
59336;SDS011;45115;52.002;4.686;2023-02-28T02:31:33;6.30;;;3.08;;
59336;SDS011;45115;52.002;4.686;2023-02-28T02:36:53;7.72;;;3.40;;
59336;SDS011;45115;52.002;4.686;2023-02-28T02:39:27;5.25;;;2.92;;
59336;SDS011;45115;52.002;4.686;2023-02-28T02:41:56;4.80;;;2.65;;
59336;SDS011;45115;52.002;4.686;2023-02-28T02:44:25;5.03;;;2.97;;
59336;SDS011;45115;52.002;4.686;2023-02-28T02:46:57;4.70;;;2.67;;
59336;SDS011;45115;52.002;4.686;2023-02-28T02:49:36;5.90;;;2.80;;
59336;SDS011;45115;52.002;4.686;2023-02-28T02:52:07;12.13;;;4.57;;
59336;SDS011;45115;52.002;4.686;2023-02-28T02:54:37;5.85;;;3.00;;
59336;SDS011;45115;52.002;4.686;2023-02-28T02:57:05;4.82;;;3.00;;
59336;SDS011;45115;52.002;4.686;2023-02-28T02:59:33;5.63;;;3.08;;
59336;SDS011;45115;52.002;4.686;2023-02-28T03:02:02;7.30;;;3.53;;
59336;SDS011;45115;52.002;4.686;2023-02-28T03:04:30;7.72;;;3.20;;
59336;SDS011;45115;52.002;4.686;2023-02-28T03:06:58;7.07;;;3.50;;
59336;SDS011;45115;52.002;4.686;2023-02-28T03:09:26;5.82;;;3.08;;
59336;SDS011;45115;52.002;4.686;2023-02-28T03:11:54;8.68;;;3.60;;
59336;SDS011;45115;52.002;4.686;2023-02-28T03:14:25;4.60;;;2.95;;
59336;SDS011;45115;52.002;4.686;2023-02-28T03:17:03;8.90;;;3.80;;
59336;SDS011;45115;52.002;4.686;2023-02-28T03:19:34;9.05;;;3.50;;
59336;SDS011;45115;52.002;4.686;2023-02-28T03:22:09;6.10;;;3.42;;
59336;SDS011;45115;52.002;4.686;2023-02-28T03:24:43;6.45;;;3.60;;
59336;SDS011;45115;52.002;4.686;2023-02-28T03:27:12;7.07;;;3.45;;
59336;SDS011;45115;52.002;4.686;2023-02-28T03:29:42;6.35;;;3.22;;
59336;SDS011;45115;52.002;4.686;2023-02-28T03:32:12;7.47;;;3.90;;
59336;SDS011;45115;52.002;4.686;2023-02-28T03:34:43;6.45;;;3.58;;
59336;SDS011;45115;52.002;4.686;2023-02-28T03:37:14;9.48;;;4.60;;
59336;SDS011;45115;52.002;4.686;2023-02-28T03:39:45;9.80;;;3.88;;
59336;SDS011;45115;52.002;4.686;2023-02-28T03:42:14;10.60;;;3.83;;
59336;SDS011;45115;52.002;4.686;2023-02-28T03:44:42;9.18;;;3.72;;
59336;SDS011;45115;52.002;4.686;2023-02-28T03:47:12;6.15;;;3.47;;
59336;SDS011;45115;52.002;4.686;2023-02-28T03:49:41;9.20;;;4.03;;
59336;SDS011;45115;52.002;4.686;2023-02-28T03:52:09;8.02;;;4.15;;
59336;SDS011;45115;52.002;4.686;2023-02-28T03:54:37;5.68;;;4.28;;
59336;SDS011;45115;52.002;4.686;2023-02-28T03:57:10;6.95;;;3.92;;
59336;SDS011;45115;52.002;4.686;2023-02-28T03:59:39;7.03;;;4.65;;
59336;SDS011;45115;52.002;4.686;2023-02-28T04:02:08;8.00;;;3.58;;
59336;SDS011;45115;52.002;4.686;2023-02-28T04:04:35;9.15;;;4.90;;
59336;SDS011;45115;52.002;4.686;2023-02-28T04:07:02;9.60;;;4.18;;
59336;SDS011;45115;52.002;4.686;2023-02-28T04:09:29;7.78;;;4.22;;
59336;SDS011;45115;52.002;4.686;2023-02-28T04:11:55;8.45;;;4.28;;
59336;SDS011;45115;52.002;4.686;2023-02-28T04:14:23;11.10;;;4.43;;
59336;SDS011;45115;52.002;4.686;2023-02-28T04:16:49;13.38;;;4.88;;
59336;SDS011;45115;52.002;4.686;2023-02-28T04:19:17;9.05;;;4.57;;
59336;SDS011;45115;52.002;4.686;2023-02-28T04:21:44;9.18;;;4.97;;
59336;SDS011;45115;52.002;4.686;2023-02-28T04:24:11;7.43;;;4.53;;
59336;SDS011;45115;52.002;4.686;2023-02-28T04:26:40;8.57;;;4.85;;
59336;SDS011;45115;52.002;4.686;2023-02-28T04:29:11;9.68;;;4.50;;
59336;SDS011;45115;52.002;4.686;2023-02-28T04:31:39;8.98;;;4.55;;
59336;SDS011;45115;52.002;4.686;2023-02-28T04:34:06;8.13;;;4.38;;
59336;SDS011;45115;52.002;4.686;2023-02-28T04:36:33;10.00;;;4.43;;
59336;SDS011;45115;52.002;4.686;2023-02-28T04:38:59;8.48;;;4.65;;
59336;SDS011;45115;52.002;4.686;2023-02-28T04:41:26;11.98;;;4.72;;
59336;SDS011;45115;52.002;4.686;2023-02-28T04:43:52;11.57;;;5.13;;
59336;SDS011;45115;52.002;4.686;2023-02-28T04:46:19;11.30;;;5.50;;
59336;SDS011;45115;52.002;4.686;2023-02-28T04:48:48;9.00;;;5.07;;
59336;SDS011;45115;52.002;4.686;2023-02-28T04:51:15;11.50;;;5.40;;
59336;SDS011;45115;52.002;4.686;2023-02-28T04:53:42;10.07;;;5.10;;
59336;SDS011;45115;52.002;4.686;2023-02-28T04:56:10;10.40;;;4.97;;
59336;SDS011;45115;52.002;4.686;2023-02-28T04:58:37;10.55;;;5.13;;
59336;SDS011;45115;52.002;4.686;2023-02-28T05:01:05;11.13;;;5.15;;
59336;SDS011;45115;52.002;4.686;2023-02-28T05:03:38;10.88;;;5.15;;
59336;SDS011;45115;52.002;4.686;2023-02-28T05:06:07;11.98;;;5.63;;
59336;SDS011;45115;52.002;4.686;2023-02-28T05:08:33;11.25;;;5.50;;
59336;SDS011;45115;52.002;4.686;2023-02-28T05:11:00;11.38;;;5.50;;
59336;SDS011;45115;52.002;4.686;2023-02-28T05:13:27;11.43;;;6.05;;
59336;SDS011;45115;52.002;4.686;2023-02-28T05:15:54;11.65;;;5.55;;
59336;SDS011;45115;52.002;4.686;2023-02-28T05:18:20;15.20;;;5.47;;
59336;SDS011;45115;52.002;4.686;2023-02-28T05:20:47;12.48;;;5.82;;
59336;SDS011;45115;52.002;4.686;2023-02-28T05:23:15;12.13;;;5.63;;
59336;SDS011;45115;52.002;4.686;2023-02-28T05:25:43;11.88;;;5.53;;
59336;SDS011;45115;52.002;4.686;2023-02-28T05:28:10;10.68;;;5.75;;
59336;SDS011;45115;52.002;4.686;2023-02-28T05:30:37;12.23;;;6.13;;
59336;SDS011;45115;52.002;4.686;2023-02-28T05:33:03;14.32;;;6.35;;
59336;SDS011;45115;52.002;4.686;2023-02-28T05:35:30;11.20;;;5.43;;
59336;SDS011;45115;52.002;4.686;2023-02-28T05:37:56;10.45;;;5.70;;
59336;SDS011;45115;52.002;4.686;2023-02-28T05:40:25;12.38;;;6.15;;
59336;SDS011;45115;52.002;4.686;2023-02-28T05:42:51;16.80;;;7.32;;
59336;SDS011;45115;52.002;4.686;2023-02-28T05:45:17;13.52;;;5.70;;
59336;SDS011;45115;52.002;4.686;2023-02-28T05:47:44;11.63;;;5.80;;
59336;SDS011;45115;52.002;4.686;2023-02-28T05:50:10;12.48;;;5.63;;
59336;SDS011;45115;52.002;4.686;2023-02-28T05:52:37;13.65;;;6.40;;
59336;SDS011;45115;52.002;4.686;2023-02-28T05:55:04;13.90;;;6.32;;
59336;SDS011;45115;52.002;4.686;2023-02-28T05:57:32;11.55;;;6.00;;
59336;SDS011;45115;52.002;4.686;2023-02-28T05:59:58;12.43;;;6.47;;
59336;SDS011;45115;52.002;4.686;2023-02-28T06:02:24;12.02;;;6.20;;
59336;SDS011;45115;52.002;4.686;2023-02-28T06:04:51;12.85;;;6.63;;
59336;SDS011;45115;52.002;4.686;2023-02-28T06:07:20;11.73;;;6.90;;
59336;SDS011;45115;52.002;4.686;2023-02-28T06:09:47;10.15;;;5.70;;
59336;SDS011;45115;52.002;4.686;2023-02-28T06:12:14;12.45;;;6.18;;
59336;SDS011;45115;52.002;4.686;2023-02-28T06:14:41;10.00;;;5.72;;
59336;SDS011;45115;52.002;4.686;2023-02-28T06:17:08;12.50;;;5.88;;
59336;SDS011;45115;52.002;4.686;2023-02-28T06:19:36;8.48;;;4.82;;
59336;SDS011;45115;52.002;4.686;2023-02-28T06:22:03;8.75;;;4.47;;
59336;SDS011;45115;52.002;4.686;2023-02-28T06:24:30;8.18;;;4.28;;
59336;SDS011;45115;52.002;4.686;2023-02-28T06:26:57;8.32;;;4.68;;
59336;SDS011;45115;52.002;4.686;2023-02-28T06:29:30;6.30;;;4.40;;
59336;SDS011;45115;52.002;4.686;2023-02-28T06:31:57;9.02;;;4.55;;
59336;SDS011;45115;52.002;4.686;2023-02-28T06:34:24;10.40;;;5.25;;
59336;SDS011;45115;52.002;4.686;2023-02-28T06:36:51;7.07;;;3.90;;
59336;SDS011;45115;52.002;4.686;2023-02-28T06:39:17;7.70;;;4.15;;
59336;SDS011;45115;52.002;4.686;2023-02-28T06:41:44;8.85;;;4.35;;
59336;SDS011;45115;52.002;4.686;2023-02-28T06:44:11;8.15;;;4.70;;
59336;SDS011;45115;52.002;4.686;2023-02-28T06:46:38;10.15;;;4.60;;
59336;SDS011;45115;52.002;4.686;2023-02-28T06:49:06;6.63;;;4.22;;
59336;SDS011;45115;52.002;4.686;2023-02-28T06:51:34;7.30;;;4.20;;
59336;SDS011;45115;52.002;4.686;2023-02-28T06:54:01;7.68;;;4.25;;
59336;SDS011;45115;52.002;4.686;2023-02-28T06:56:27;7.60;;;4.60;;
59336;SDS011;45115;52.002;4.686;2023-02-28T06:58:54;7.38;;;4.63;;
59336;SDS011;45115;52.002;4.686;2023-02-28T07:01:22;10.50;;;4.88;;
59336;SDS011;45115;52.002;4.686;2023-02-28T07:03:50;8.65;;;4.70;;
59336;SDS011;45115;52.002;4.686;2023-02-28T07:06:18;9.70;;;4.80;;
59336;SDS011;45115;52.002;4.686;2023-02-28T07:08:45;8.95;;;5.10;;
59336;SDS011;45115;52.002;4.686;2023-02-28T07:11:11;9.30;;;4.72;;
59336;SDS011;45115;52.002;4.686;2023-02-28T07:13:38;11.18;;;5.18;;
59336;SDS011;45115;52.002;4.686;2023-02-28T07:16:05;8.93;;;5.18;;
59336;SDS011;45115;52.002;4.686;2023-02-28T07:18:34;11.45;;;5.32;;
59336;SDS011;45115;52.002;4.686;2023-02-28T07:21:01;8.65;;;4.97;;
59336;SDS011;45115;52.002;4.686;2023-02-28T07:23:29;10.43;;;5.32;;
59336;SDS011;45115;52.002;4.686;2023-02-28T07:25:55;9.20;;;5.32;;
59336;SDS011;45115;52.002;4.686;2023-02-28T07:28:22;9.60;;;5.90;;
59336;SDS011;45115;52.002;4.686;2023-02-28T07:30:49;10.40;;;5.28;;
59336;SDS011;45115;52.002;4.686;2023-02-28T07:33:15;13.85;;;5.72;;
59336;SDS011;45115;52.002;4.686;2023-02-28T07:35:42;12.20;;;5.88;;
59336;SDS011;45115;52.002;4.686;2023-02-28T07:38:08;11.00;;;5.47;;
59336;SDS011;45115;52.002;4.686;2023-02-28T07:40:36;12.50;;;5.60;;
59336;SDS011;45115;52.002;4.686;2023-02-28T07:43:03;7.78;;;4.68;;
59336;SDS011;45115;52.002;4.686;2023-02-28T07:45:29;10.13;;;4.93;;
59336;SDS011;45115;52.002;4.686;2023-02-28T07:47:56;12.57;;;5.30;;
59336;SDS011;45115;52.002;4.686;2023-02-28T07:50:23;8.82;;;4.38;;
59336;SDS011;45115;52.002;4.686;2023-02-28T07:52:49;8.20;;;4.65;;
59336;SDS011;45115;52.002;4.686;2023-02-28T07:55:16;9.38;;;5.38;;
59336;SDS011;45115;52.002;4.686;2023-02-28T07:57:44;11.60;;;4.80;;
59336;SDS011;45115;52.002;4.686;2023-02-28T08:00:11;12.95;;;6.35;;
59336;SDS011;45115;52.002;4.686;2023-02-28T08:02:39;15.88;;;6.35;;
59336;SDS011;45115;52.002;4.686;2023-02-28T08:05:06;13.57;;;6.80;;
59336;SDS011;45115;52.002;4.686;2023-02-28T08:07:33;14.52;;;6.60;;
59336;SDS011;45115;52.002;4.686;2023-02-28T08:09:59;16.40;;;7.63;;
59336;SDS011;45115;52.002;4.686;2023-02-28T08:12:26;15.05;;;6.55;;
59336;SDS011;45115;52.002;4.686;2023-02-28T08:14:54;17.30;;;7.30;;
59336;SDS011;45115;52.002;4.686;2023-02-28T08:17:20;15.00;;;7.20;;
59336;SDS011;45115;52.002;4.686;2023-02-28T08:19:47;15.20;;;6.78;;
59336;SDS011;45115;52.002;4.686;2023-02-28T08:22:13;16.20;;;7.75;;
59336;SDS011;45115;52.002;4.686;2023-02-28T08:24:40;16.70;;;8.18;;
59336;SDS011;45115;52.002;4.686;2023-02-28T08:27:07;16.90;;;7.90;;
59336;SDS011;45115;52.002;4.686;2023-02-28T08:29:36;14.55;;;7.60;;
59336;SDS011;45115;52.002;4.686;2023-02-28T08:32:05;16.63;;;7.70;;
59336;SDS011;45115;52.002;4.686;2023-02-28T08:34:31;17.13;;;6.95;;
59336;SDS011;45115;52.002;4.686;2023-02-28T08:36:58;14.68;;;7.32;;
59336;SDS011;45115;52.002;4.686;2023-02-28T08:39:24;14.68;;;7.25;;
59336;SDS011;45115;52.002;4.686;2023-02-28T08:41:51;15.68;;;7.40;;
59336;SDS011;45115;52.002;4.686;2023-02-28T08:44:17;14.23;;;6.28;;
59336;SDS011;45115;52.002;4.686;2023-02-28T08:46:44;13.68;;;6.22;;
59336;SDS011;45115;52.002;4.686;2023-02-28T08:49:11;13.10;;;6.38;;
59336;SDS011;45115;52.002;4.686;2023-02-28T08:51:38;13.90;;;6.13;;
59336;SDS011;45115;52.002;4.686;2023-02-28T08:54:04;15.82;;;7.07;;
59336;SDS011;45115;52.002;4.686;2023-02-28T08:56:31;14.23;;;6.88;;
59336;SDS011;45115;52.002;4.686;2023-02-28T08:58:57;16.00;;;6.93;;
59336;SDS011;45115;52.002;4.686;2023-02-28T09:01:25;15.85;;;7.28;;
59336;SDS011;45115;52.002;4.686;2023-02-28T09:03:52;16.65;;;7.07;;
59336;SDS011;45115;52.002;4.686;2023-02-28T09:06:21;12.45;;;6.15;;
59336;SDS011;45115;52.002;4.686;2023-02-28T09:08:48;14.35;;;6.68;;
59336;SDS011;45115;52.002;4.686;2023-02-28T09:11:14;14.80;;;6.10;;
59336;SDS011;45115;52.002;4.686;2023-02-28T09:13:41;12.73;;;6.68;;
59336;SDS011;45115;52.002;4.686;2023-02-28T09:16:08;12.25;;;6.05;;
59336;SDS011;45115;52.002;4.686;2023-02-28T09:18:36;13.90;;;6.45;;
59336;SDS011;45115;52.002;4.686;2023-02-28T09:21:03;15.73;;;6.63;;
59336;SDS011;45115;52.002;4.686;2023-02-28T09:23:31;12.63;;;6.00;;
59336;SDS011;45115;52.002;4.686;2023-02-28T09:25:57;12.07;;;5.72;;
59336;SDS011;45115;52.002;4.686;2023-02-28T09:28:24;12.73;;;5.60;;
59336;SDS011;45115;52.002;4.686;2023-02-28T09:30:51;11.27;;;5.40;;
59336;SDS011;45115;52.002;4.686;2023-02-28T09:33:18;12.65;;;5.85;;
59336;SDS011;45115;52.002;4.686;2023-02-28T09:35:46;9.57;;;5.28;;
59336;SDS011;45115;52.002;4.686;2023-02-28T09:38:12;10.68;;;4.72;;
59336;SDS011;45115;52.002;4.686;2023-02-28T09:40:44;13.10;;;5.15;;
59336;SDS011;45115;52.002;4.686;2023-02-28T09:43:12;12.70;;;5.35;;
59336;SDS011;45115;52.002;4.686;2023-02-28T09:45:40;10.77;;;5.15;;
59336;SDS011;45115;52.002;4.686;2023-02-28T09:48:10;10.50;;;4.88;;
59336;SDS011;45115;52.002;4.686;2023-02-28T09:50:38;9.10;;;5.40;;
59336;SDS011;45115;52.002;4.686;2023-02-28T09:53:10;12.10;;;6.07;;
59336;SDS011;45115;52.002;4.686;2023-02-28T09:55:42;11.32;;;5.60;;
59336;SDS011;45115;52.002;4.686;2023-02-28T09:58:10;10.30;;;5.00;;
59336;SDS011;45115;52.002;4.686;2023-02-28T10:00:42;9.63;;;5.15;;
59336;SDS011;45115;52.002;4.686;2023-02-28T10:05:54;10.60;;;5.40;;
59336;SDS011;45115;52.002;4.686;2023-02-28T10:08:23;8.93;;;5.20;;
59336;SDS011;45115;52.002;4.686;2023-02-28T10:10:53;11.02;;;5.50;;
59336;SDS011;45115;52.002;4.686;2023-02-28T10:13:22;8.68;;;5.13;;
59336;SDS011;45115;52.002;4.686;2023-02-28T10:15:51;9.95;;;5.18;;
59336;SDS011;45115;52.002;4.686;2023-02-28T10:18:20;10.88;;;5.22;;
59336;SDS011;45115;52.002;4.686;2023-02-28T10:20:47;11.68;;;5.00;;
59336;SDS011;45115;52.002;4.686;2023-02-28T10:23:17;12.40;;;5.82;;
59336;SDS011;45115;52.002;4.686;2023-02-28T10:25:46;9.60;;;5.00;;
59336;SDS011;45115;52.002;4.686;2023-02-28T10:28:15;10.85;;;5.57;;
59336;SDS011;45115;52.002;4.686;2023-02-28T10:30:43;9.63;;;5.03;;
59336;SDS011;45115;52.002;4.686;2023-02-28T10:33:16;7.93;;;4.82;;
59336;SDS011;45115;52.002;4.686;2023-02-28T10:35:44;10.75;;;5.50;;
59336;SDS011;45115;52.002;4.686;2023-02-28T10:38:13;9.60;;;5.07;;
59336;SDS011;45115;52.002;4.686;2023-02-28T10:40:41;7.45;;;4.60;;
59336;SDS011;45115;52.002;4.686;2023-02-28T10:43:16;6.63;;;4.28;;
59336;SDS011;45115;52.002;4.686;2023-02-28T10:45:51;9.15;;;4.28;;
59336;SDS011;45115;52.002;4.686;2023-02-28T10:48:36;6.78;;;4.20;;
59336;SDS011;45115;52.002;4.686;2023-02-28T10:51:03;9.25;;;3.95;;
59336;SDS011;45115;52.002;4.686;2023-02-28T10:53:31;9.57;;;4.20;;
59336;SDS011;45115;52.002;4.686;2023-02-28T10:55:59;7.00;;;4.00;;
59336;SDS011;45115;52.002;4.686;2023-02-28T10:58:27;7.93;;;4.13;;
59336;SDS011;45115;52.002;4.686;2023-02-28T11:00:57;5.55;;;4.30;;
59336;SDS011;45115;52.002;4.686;2023-02-28T11:03:25;7.85;;;4.30;;
59336;SDS011;45115;52.002;4.686;2023-02-28T11:05:54;6.07;;;3.50;;
59336;SDS011;45115;52.002;4.686;2023-02-28T11:08:21;4.25;;;3.38;;
59336;SDS011;45115;52.002;4.686;2023-02-28T11:10:48;5.75;;;3.30;;
59336;SDS011;45115;52.002;4.686;2023-02-28T11:13:16;5.63;;;3.47;;
59336;SDS011;45115;52.002;4.686;2023-02-28T11:15:48;4.43;;;3.13;;
59336;SDS011;45115;52.002;4.686;2023-02-28T11:18:21;4.13;;;3.60;;
59336;SDS011;45115;52.002;4.686;2023-02-28T11:20:49;5.18;;;3.42;;
59336;SDS011;45115;52.002;4.686;2023-02-28T11:23:16;5.03;;;3.40;;
59336;SDS011;45115;52.002;4.686;2023-02-28T11:25:46;4.60;;;3.50;;
59336;SDS011;45115;52.002;4.686;2023-02-28T11:28:23;5.57;;;3.77;;
59336;SDS011;45115;52.002;4.686;2023-02-28T11:30:59;5.07;;;3.22;;
59336;SDS011;45115;52.002;4.686;2023-02-28T11:33:28;4.43;;;3.47;;
59336;SDS011;45115;52.002;4.686;2023-02-28T11:35:55;5.22;;;3.47;;
59336;SDS011;45115;52.002;4.686;2023-02-28T11:38:25;5.03;;;3.78;;
59336;SDS011;45115;52.002;4.686;2023-02-28T11:40:55;6.47;;;3.63;;
59336;SDS011;45115;52.002;4.686;2023-02-28T11:43:30;4.32;;;3.20;;
59336;SDS011;45115;52.002;4.686;2023-02-28T11:46:08;5.00;;;3.40;;
59336;SDS011;45115;52.002;4.686;2023-02-28T11:48:40;4.95;;;3.53;;
59336;SDS011;45115;52.002;4.686;2023-02-28T11:51:11;7.38;;;3.92;;
59336;SDS011;45115;52.002;4.686;2023-02-28T11:53:47;5.65;;;3.50;;
59336;SDS011;45115;52.002;4.686;2023-02-28T11:56:18;7.13;;;4.25;;
59336;SDS011;45115;52.002;4.686;2023-02-28T11:58:49;5.13;;;3.38;;
59336;SDS011;45115;52.002;4.686;2023-02-28T12:01:21;4.43;;;3.00;;
59336;SDS011;45115;52.002;4.686;2023-02-28T12:03:56;4.22;;;3.38;;
59336;SDS011;45115;52.002;4.686;2023-02-28T12:06:25;5.40;;;3.28;;
59336;SDS011;45115;52.002;4.686;2023-02-28T12:11:25;6.00;;;2.90;;
59336;SDS011;45115;52.002;4.686;2023-02-28T12:13:57;3.63;;;2.95;;
59336;SDS011;45115;52.002;4.686;2023-02-28T12:19:20;9.07;;;3.50;;
59336;SDS011;45115;52.002;4.686;2023-02-28T12:24:39;4.80;;;3.22;;
59336;SDS011;45115;52.002;4.686;2023-02-28T12:27:12;4.75;;;3.20;;
59336;SDS011;45115;52.002;4.686;2023-02-28T12:29:41;4.18;;;3.55;;
59336;SDS011;45115;52.002;4.686;2023-02-28T12:32:12;5.68;;;3.58;;
59336;SDS011;45115;52.002;4.686;2023-02-28T12:34:43;5.43;;;3.20;;
59336;SDS011;45115;52.002;4.686;2023-02-28T12:37:12;5.68;;;3.55;;
59336;SDS011;45115;52.002;4.686;2023-02-28T12:39:41;6.32;;;3.28;;
59336;SDS011;45115;52.002;4.686;2023-02-28T12:42:10;5.10;;;3.25;;
59336;SDS011;45115;52.002;4.686;2023-02-28T12:44:39;7.40;;;3.33;;
59336;SDS011;45115;52.002;4.686;2023-02-28T12:47:09;4.35;;;3.20;;
59336;SDS011;45115;52.002;4.686;2023-02-28T12:49:38;4.25;;;3.20;;
59336;SDS011;45115;52.002;4.686;2023-02-28T12:52:06;6.47;;;3.33;;
59336;SDS011;45115;52.002;4.686;2023-02-28T12:54:38;4.63;;;3.17;;
59336;SDS011;45115;52.002;4.686;2023-02-28T12:57:11;4.05;;;3.13;;
59336;SDS011;45115;52.002;4.686;2023-02-28T12:59:40;5.45;;;3.10;;
59336;SDS011;45115;52.002;4.686;2023-02-28T13:02:18;4.43;;;2.95;;
59336;SDS011;45115;52.002;4.686;2023-02-28T13:07:57;3.97;;;2.90;;
59336;SDS011;45115;52.002;4.686;2023-02-28T13:10:37;5.00;;;3.40;;
59336;SDS011;45115;52.002;4.686;2023-02-28T13:13:04;5.15;;;3.20;;
59336;SDS011;45115;52.002;4.686;2023-02-28T13:15:30;7.07;;;3.80;;
59336;SDS011;45115;52.002;4.686;2023-02-28T13:18:00;4.50;;;3.10;;
59336;SDS011;45115;52.002;4.686;2023-02-28T13:20:27;6.63;;;3.67;;
59336;SDS011;45115;52.002;4.686;2023-02-28T13:22:57;3.40;;;2.90;;
59336;SDS011;45115;52.002;4.686;2023-02-28T13:31:00;4.97;;;3.35;;
59336;SDS011;45115;52.002;4.686;2023-02-28T13:33:27;7.05;;;3.60;;
59336;SDS011;45115;52.002;4.686;2023-02-28T13:36:06;6.03;;;3.42;;
59336;SDS011;45115;52.002;4.686;2023-02-28T13:38:36;3.88;;;3.20;;
59336;SDS011;45115;52.002;4.686;2023-02-28T13:44:00;5.03;;;3.50;;
59336;SDS011;45115;52.002;4.686;2023-02-28T13:46:27;4.50;;;3.28;;
59336;SDS011;45115;52.002;4.686;2023-02-28T13:48:54;6.30;;;3.53;;
59336;SDS011;45115;52.002;4.686;2023-02-28T13:54:20;6.35;;;3.60;;
59336;SDS011;45115;52.002;4.686;2023-02-28T13:56:52;6.07;;;3.60;;
59336;SDS011;45115;52.002;4.686;2023-02-28T13:59:23;4.85;;;3.58;;
59336;SDS011;45115;52.002;4.686;2023-02-28T14:02:01;6.05;;;3.25;;
59336;SDS011;45115;52.002;4.686;2023-02-28T14:04:40;5.25;;;3.42;;
59336;SDS011;45115;52.002;4.686;2023-02-28T14:07:08;4.13;;;3.10;;
59336;SDS011;45115;52.002;4.686;2023-02-28T14:09:37;5.25;;;3.00;;
59336;SDS011;45115;52.002;4.686;2023-02-28T14:14:53;5.47;;;3.30;;
59336;SDS011;45115;52.002;4.686;2023-02-28T14:17:20;4.47;;;3.15;;
59336;SDS011;45115;52.002;4.686;2023-02-28T14:19:47;6.10;;;3.45;;
59336;SDS011;45115;52.002;4.686;2023-02-28T14:22:18;4.18;;;2.92;;
59336;SDS011;45115;52.002;4.686;2023-02-28T14:25:04;6.65;;;3.70;;
59336;SDS011;45115;52.002;4.686;2023-02-28T14:27:37;5.35;;;3.47;;
59336;SDS011;45115;52.002;4.686;2023-02-28T14:32:54;4.57;;;2.72;;
59336;SDS011;45115;52.002;4.686;2023-02-28T14:35:35;8.75;;;3.42;;
59336;SDS011;45115;52.002;4.686;2023-02-28T14:38:18;5.72;;;3.10;;
59336;SDS011;45115;52.002;4.686;2023-02-28T14:40:47;5.13;;;3.22;;
59336;SDS011;45115;52.002;4.686;2023-02-28T14:43:18;5.22;;;2.92;;
59336;SDS011;45115;52.002;4.686;2023-02-28T14:45:48;4.15;;;3.00;;
59336;SDS011;45115;52.002;4.686;2023-02-28T14:48:15;3.53;;;3.20;;
59336;SDS011;45115;52.002;4.686;2023-02-28T14:50:42;5.30;;;3.33;;
59336;SDS011;45115;52.002;4.686;2023-02-28T14:53:15;4.13;;;3.05;;
59336;SDS011;45115;52.002;4.686;2023-02-28T14:55:44;4.57;;;2.92;;
59336;SDS011;45115;52.002;4.686;2023-02-28T14:58:19;6.78;;;3.10;;
59336;SDS011;45115;52.002;4.686;2023-02-28T15:00:48;5.95;;;3.15;;
59336;SDS011;45115;52.002;4.686;2023-02-28T15:03:17;4.13;;;2.90;;
59336;SDS011;45115;52.002;4.686;2023-02-28T15:05:50;4.68;;;3.10;;
59336;SDS011;45115;52.002;4.686;2023-02-28T15:08:17;5.50;;;3.20;;
59336;SDS011;45115;52.002;4.686;2023-02-28T15:10:45;3.95;;;2.90;;
59336;SDS011;45115;52.002;4.686;2023-02-28T15:13:14;6.20;;;3.05;;
59336;SDS011;45115;52.002;4.686;2023-02-28T15:15:47;6.70;;;3.28;;
59336;SDS011;45115;52.002;4.686;2023-02-28T15:18:16;5.55;;;2.85;;
59336;SDS011;45115;52.002;4.686;2023-02-28T15:20:45;5.55;;;3.42;;
59336;SDS011;45115;52.002;4.686;2023-02-28T15:23:11;6.15;;;3.10;;
59336;SDS011;45115;52.002;4.686;2023-02-28T15:25:38;6.78;;;3.42;;